createdAt,value
2023-02-24T00:00:31.055Z,-0.48
2023-02-24T00:02:59.283Z,-0.46
2023-02-24T00:05:26.956Z,-0.44
2023-02-24T00:07:54.669Z,-0.41
2023-02-24T00:10:22.495Z,-0.42
2023-02-24T00:12:53.997Z,-0.46
2023-02-24T00:15:21.715Z,-0.45
2023-02-24T00:17:49.388Z,-0.42
2023-02-24T00:20:19.046Z,-0.45
2023-02-24T00:22:46.759Z,-0.46
2023-02-24T00:25:14.757Z,-0.42
2023-02-24T00:27:42.783Z,-0.41
2023-02-24T00:30:12.713Z,-0.37
2023-02-24T00:32:40.531Z,-0.35
2023-02-24T00:35:09.579Z,-0.32
2023-02-24T00:37:37.270Z,-0.33
2023-02-24T00:40:11.268Z,-0.43
2023-02-24T00:42:39.899Z,-0.41
2023-02-24T00:45:10.347Z,-0.39
2023-02-24T00:47:40.194Z,-0.35
2023-02-24T00:50:08.427Z,-0.37
2023-02-24T00:52:37.019Z,-0.43
2023-02-24T00:55:13.912Z,-0.46
2023-02-24T00:57:42.281Z,-0.49
2023-02-24T01:00:14.135Z,-0.52
2023-02-24T01:02:44.746Z,-0.53
2023-02-24T01:05:13.115Z,-0.57
2023-02-24T01:07:41.011Z,-0.59
2023-02-24T01:10:08.866Z,-0.62
2023-02-24T01:12:49.730Z,-0.59
2023-02-24T01:15:18.195Z,-0.60
2023-02-24T01:17:47.300Z,-0.60
2023-02-24T01:20:19.062Z,-0.59
2023-02-24T01:22:48.125Z,-0.59
2023-02-24T01:25:15.764Z,-0.58
2023-02-24T01:27:43.469Z,-0.58
2023-02-24T01:30:15.923Z,-0.58
2023-02-24T01:32:44.146Z,-0.55
2023-02-24T01:35:14.584Z,-0.57
2023-02-24T01:37:43.180Z,-0.60
2023-02-24T01:40:18.620Z,-0.59
2023-02-24T01:42:49.496Z,-0.59
2023-02-24T01:45:28.694Z,-0.62
2023-02-24T01:47:58.753Z,-0.60
2023-02-24T01:50:28.109Z,-0.57
2023-02-24T01:52:58.251Z,-0.59
2023-02-24T01:55:29.241Z,-0.54
2023-02-24T01:57:57.444Z,-0.58
2023-02-24T02:00:38.385Z,-0.60
2023-02-24T02:03:12.465Z,-0.65
2023-02-24T02:05:45.286Z,-0.67
2023-02-24T02:08:14.595Z,-0.68
2023-02-24T02:10:44.164Z,-0.73
2023-02-24T02:13:13.183Z,-0.74
2023-02-24T02:15:48.304Z,-0.71
2023-02-24T02:18:19.054Z,-0.70
2023-02-24T02:20:57.697Z,-0.73
2023-02-24T02:23:44.022Z,-0.73
2023-02-24T02:26:21.753Z,-0.72
2023-02-24T02:29:01.229Z,-0.72
2023-02-24T02:31:50.902Z,-0.73
2023-02-24T02:34:30.503Z,-0.73
2023-02-24T02:37:02.726Z,-0.71
2023-02-24T02:39:38.032Z,-0.71
2023-02-24T02:42:15.001Z,-0.66
2023-02-24T02:44:47.597Z,-0.64
2023-02-24T02:47:19.257Z,-0.62
2023-02-24T02:49:50.952Z,-0.67
2023-02-24T02:52:20.560Z,-0.69
2023-02-24T02:54:50.719Z,-0.66
2023-02-24T02:57:21.366Z,-0.66
2023-02-24T02:59:52.329Z,-0.67
2023-02-24T03:02:21.127Z,-0.67
2023-02-24T03:04:52.417Z,-0.69
2023-02-24T03:07:21.033Z,-0.66
2023-02-24T03:09:51.636Z,-0.63
2023-02-24T03:12:21.464Z,-0.63
2023-02-24T03:14:51.468Z,-0.59
2023-02-24T03:17:22.327Z,-0.58
2023-02-24T03:20:00.239Z,-0.57
2023-02-24T03:22:34.634Z,-0.55
2023-02-24T03:25:05.013Z,-0.62
2023-02-24T03:27:35.419Z,-0.62
2023-02-24T03:30:07.098Z,-0.67
2023-02-24T03:32:44.224Z,-0.65
2023-02-24T03:35:16.990Z,-0.66
2023-02-24T03:37:45.292Z,-0.68
2023-02-24T03:40:15.170Z,-0.72
2023-02-24T03:42:44.650Z,-0.72
2023-02-24T03:45:12.481Z,-0.69
2023-02-24T03:47:40.860Z,-0.69
2023-02-24T03:50:13.935Z,-0.72
2023-02-24T03:52:47.026Z,-0.76
2023-02-24T03:55:22.637Z,-0.74
2023-02-24T03:58:00.978Z,-0.75
2023-02-24T04:00:34.402Z,-0.75
2023-02-24T04:03:10.839Z,-0.76
2023-02-24T04:05:47.489Z,-0.77
2023-02-24T04:08:17.021Z,-0.75
2023-02-24T04:10:52.660Z,-0.72
2023-02-24T04:13:25.114Z,-0.75
2023-02-24T04:15:58.475Z,-0.82
2023-02-24T04:18:28.461Z,-0.87
2023-02-24T04:20:59.884Z,-0.83
2023-02-24T04:23:31.626Z,-0.81
2023-02-24T04:25:59.299Z,-0.83
2023-02-24T04:28:28.612Z,-0.82
2023-02-24T04:30:58.908Z,-0.76
2023-02-24T04:33:26.780Z,-0.76
2023-02-24T04:35:54.561Z,-0.76
2023-02-24T04:38:24.176Z,-0.76
2023-02-24T04:40:51.992Z,-0.77
2023-02-24T04:43:19.788Z,-0.80
2023-02-24T04:45:47.405Z,-0.84
2023-02-24T04:48:15.207Z,-0.82
2023-02-24T04:50:44.530Z,-0.83
2023-02-24T04:53:13.509Z,-0.82
2023-02-24T04:55:43.451Z,-0.85
2023-02-24T04:58:11.904Z,-0.85
2023-02-24T05:00:41.607Z,-0.84
2023-02-24T05:03:11.321Z,-0.84
2023-02-24T05:05:39.161Z,-0.87
2023-02-24T05:08:08.108Z,-0.90
2023-02-24T05:10:38.282Z,-0.92
2023-02-24T05:13:09.125Z,-0.92
2023-02-24T05:15:41.176Z,-0.92
2023-02-24T05:18:09.616Z,-1.01
2023-02-24T05:20:55.284Z,-1.03
2023-02-24T05:23:26.180Z,-1.02
2023-02-24T05:25:54.986Z,-1.03
2023-02-24T05:28:24.293Z,-1.06
2023-02-24T05:30:52.336Z,-1.06
2023-02-24T05:33:21.580Z,-1.06
2023-02-24T05:35:51.093Z,-1.09
2023-02-24T05:38:19.785Z,-1.13
2023-02-24T05:40:48.469Z,-1.16
2023-02-24T05:43:18.708Z,-1.13
2023-02-24T05:45:47.879Z,-1.10
2023-02-24T05:48:16.043Z,-1.08
2023-02-24T05:50:46.270Z,-1.06
2023-02-24T05:53:14.051Z,-1.06
2023-02-24T05:55:43.617Z,-1.04
2023-02-24T05:58:11.390Z,-1.02
2023-02-24T06:00:39.149Z,-1.04
2023-02-24T06:03:10.530Z,-1.07
2023-02-24T06:05:42.601Z,-1.11
2023-02-24T06:08:11.827Z,-1.10
2023-02-24T06:10:41.521Z,-1.06
2023-02-24T06:13:10.388Z,-1.07
2023-02-24T06:15:38.594Z,-1.08
2023-02-24T06:18:07.092Z,-1.06
2023-02-24T06:20:36.288Z,-1.01
2023-02-24T06:23:05.379Z,-1.03
2023-02-24T06:25:33.394Z,-0.99
2023-02-24T06:28:01.897Z,-0.96
2023-02-24T06:30:29.674Z,-0.92
2023-02-24T06:32:57.607Z,-0.90
2023-02-24T06:35:25.305Z,-0.89
2023-02-24T06:37:55.878Z,-0.85
2023-02-24T06:40:23.674Z,-0.83
2023-02-24T06:42:54.053Z,-0.79
2023-02-24T06:45:22.516Z,-0.86
2023-02-24T06:47:50.119Z,-0.83
2023-02-24T06:50:20.198Z,-0.79
2023-02-24T06:52:49.110Z,-0.74
2023-02-24T06:55:27.259Z,-0.70
2023-02-24T06:57:57.343Z,-0.70
2023-02-24T07:00:36.982Z,-0.69
2023-02-24T07:03:14.772Z,-0.67
2023-02-24T07:05:50.365Z,-0.65
2023-02-24T07:08:19.045Z,-0.59
2023-02-24T07:10:52.697Z,-0.57
2023-02-24T07:13:20.366Z,-0.53
2023-02-24T07:15:49.856Z,-0.55
2023-02-24T07:18:17.668Z,-0.57
2023-02-24T07:20:46.576Z,-0.53
2023-02-24T07:23:15.114Z,-0.50
2023-02-24T07:25:43.429Z,-0.50
2023-02-24T07:28:12.691Z,-0.53
2023-02-24T07:30:41.480Z,-0.55
2023-02-24T07:33:09.725Z,-0.53
2023-02-24T07:35:37.348Z,-0.50
2023-02-24T07:38:05.667Z,-0.46
2023-02-24T07:40:33.923Z,-0.39
2023-02-24T07:43:01.940Z,-0.34
2023-02-24T07:45:31.000Z,-0.29
2023-02-24T07:48:01.292Z,-0.30
2023-02-24T07:50:32.784Z,-0.30
2023-02-24T07:53:03.986Z,-0.29
2023-02-24T07:55:31.618Z,-0.21
2023-02-24T07:58:01.508Z,-0.20
2023-02-24T08:00:30.146Z,-0.16
2023-02-24T08:03:00.251Z,-0.09
2023-02-24T08:05:27.976Z,-0.11
2023-02-24T08:07:59.595Z,-0.08
2023-02-24T08:10:28.450Z,-0.02
2023-02-24T08:13:03.010Z,0.05
2023-02-24T08:15:34.230Z,0.07
2023-02-24T08:18:03.606Z,0.04
2023-02-24T08:20:51.977Z,-0.01
2023-02-24T08:23:19.907Z,0.11
2023-02-24T08:25:47.635Z,0.12
2023-02-24T08:28:15.401Z,0.16
2023-02-24T08:30:46.458Z,0.20
2023-02-24T08:33:18.946Z,0.21
2023-02-24T08:35:51.245Z,0.26
2023-02-24T08:38:20.798Z,0.30
2023-02-24T08:40:54.584Z,0.35
2023-02-24T08:43:32.799Z,0.36
2023-02-24T08:46:03.838Z,0.32
2023-02-24T08:48:38.054Z,0.35
2023-02-24T08:51:07.827Z,0.32
2023-02-24T08:53:40.338Z,0.37
2023-02-24T08:56:11.553Z,0.39
2023-02-24T08:58:46.541Z,0.35
2023-02-24T09:01:19.871Z,0.35
2023-02-24T09:03:49.879Z,0.35
2023-02-24T09:06:25.524Z,0.41
2023-02-24T09:09:15.159Z,0.42
2023-02-24T09:11:44.256Z,0.48
2023-02-24T09:14:26.181Z,0.47
2023-02-24T09:17:05.931Z,0.45
2023-02-24T09:19:57.916Z,0.41
2023-02-24T09:22:57.276Z,0.46
2023-02-24T09:25:26.032Z,0.56
2023-02-24T09:27:55.956Z,0.50
2023-02-24T09:30:38.522Z,0.52
2023-02-24T09:33:21.034Z,0.56
2023-02-24T09:35:51.610Z,0.60
2023-02-24T09:38:20.514Z,0.67
2023-02-24T09:40:52.327Z,0.61
2023-02-24T09:43:21.761Z,0.59
2023-02-24T09:45:54.329Z,0.64
2023-02-24T09:48:32.069Z,0.57
2023-02-24T09:51:06.166Z,0.68
2023-02-24T09:53:49.417Z,0.69
2023-02-24T09:56:22.172Z,0.68
2023-02-24T09:58:53.265Z,0.71
2023-02-24T10:01:42.856Z,0.73
2023-02-24T10:04:49.196Z,0.79
2023-02-24T10:07:19.949Z,0.81
2023-02-24T10:09:50.798Z,0.80
2023-02-24T10:12:24.223Z,0.77
2023-02-24T10:15:00.065Z,0.85
2023-02-24T10:17:40.072Z,0.87
2023-02-24T10:20:28.590Z,0.93
2023-02-24T10:23:00.736Z,0.96
2023-02-24T10:25:36.847Z,0.89
2023-02-24T10:28:07.529Z,0.80
2023-02-24T10:30:43.588Z,0.89
2023-02-24T10:33:18.505Z,0.91
2023-02-24T10:35:46.181Z,0.87
2023-02-24T10:38:16.023Z,0.83
2023-02-24T10:40:47.698Z,0.91
2023-02-24T10:43:17.928Z,0.88
2023-02-24T10:45:46.276Z,0.87
2023-02-24T10:48:40.328Z,0.83
2023-02-24T10:51:10.096Z,0.84
2023-02-24T10:53:39.298Z,0.86
2023-02-24T10:56:26.544Z,0.87
2023-02-24T10:59:20.605Z,0.90
2023-02-24T11:01:59.203Z,0.86
2023-02-24T11:04:53.937Z,0.89
2023-02-24T11:07:44.171Z,0.99
2023-02-24T11:10:18.986Z,1.07
2023-02-24T11:13:09.960Z,1.05
2023-02-24T11:15:56.609Z,1.06
2023-02-24T11:18:26.170Z,1.05
2023-02-24T11:20:55.300Z,1.00
2023-02-24T11:23:25.083Z,1.04
2023-02-24T11:25:58.260Z,1.07
2023-02-24T11:28:43.577Z,1.08
2023-02-24T11:31:17.540Z,1.04
2023-02-24T11:33:49.389Z,1.09
2023-02-24T11:36:22.730Z,1.11
2023-02-24T11:39:00.783Z,1.09
2023-02-24T11:41:41.046Z,1.07
2023-02-24T11:44:15.003Z,1.12
2023-02-24T11:46:45.464Z,1.10
2023-02-24T11:49:23.048Z,1.07
2023-02-24T11:51:51.268Z,1.09
2023-02-24T11:54:18.941Z,1.15
2023-02-24T11:56:50.016Z,1.15
2023-02-24T11:59:19.893Z,1.16
2023-02-24T12:01:49.361Z,1.10
2023-02-24T12:04:20.968Z,1.12
2023-02-24T12:06:52.059Z,1.06
2023-02-24T12:09:22.918Z,1.15
2023-02-24T12:11:57.902Z,1.18
2023-02-24T12:14:29.435Z,1.14
2023-02-24T12:17:01.252Z,1.13
2023-02-24T12:19:31.257Z,1.15
2023-02-24T12:22:03.098Z,1.20
2023-02-24T12:24:30.829Z,1.25
2023-02-24T12:27:06.521Z,1.18
2023-02-24T12:29:42.573Z,1.25
2023-02-24T12:32:15.898Z,1.22
2023-02-24T12:34:51.544Z,1.22
2023-02-24T12:37:27.379Z,1.18
2023-02-24T12:39:59.961Z,1.10
2023-02-24T12:42:34.855Z,1.12
2023-02-24T12:45:05.349Z,1.10
2023-02-24T12:47:36.542Z,1.09
2023-02-24T12:50:26.956Z,1.15
2023-02-24T12:52:57.709Z,1.18
2023-02-24T12:55:28.599Z,1.18
2023-02-24T12:58:01.217Z,1.20
2023-02-24T13:00:34.298Z,1.18
2023-02-24T13:03:06.440Z,1.18
2023-02-24T13:05:38.541Z,1.24
2023-02-24T13:08:11.933Z,1.23
2023-02-24T13:10:45.910Z,1.28
2023-02-24T13:13:20.825Z,1.21
2023-02-24T13:15:53.081Z,1.17
2023-02-24T13:18:28.020Z,1.15
2023-02-24T13:21:03.829Z,1.18
2023-02-24T13:23:31.805Z,1.22
2023-02-24T13:25:59.584Z,1.17
2023-02-24T13:28:31.166Z,1.11
2023-02-24T13:30:59.794Z,1.14
2023-02-24T13:33:31.219Z,1.20
2023-02-24T13:36:10.408Z,1.14
2023-02-24T13:38:39.310Z,1.14
2023-02-24T13:41:08.306Z,1.14
2023-02-24T13:43:37.459Z,1.11
2023-02-24T13:46:18.202Z,1.08
2023-02-24T13:49:04.068Z,1.04
2023-02-24T13:51:46.482Z,1.05
2023-02-24T13:54:21.173Z,1.10
2023-02-24T13:56:53.678Z,1.09
2023-02-24T13:59:36.200Z,1.11
2023-02-24T14:02:12.982Z,1.01
2023-02-24T14:04:46.616Z,1.01
2023-02-24T14:07:20.412Z,1.03
2023-02-24T14:09:49.809Z,0.91
2023-02-24T14:12:19.375Z,0.89
2023-02-24T14:14:48.224Z,0.86
2023-02-24T14:17:28.381Z,0.82
2023-02-24T14:19:56.948Z,0.86
2023-02-24T14:22:24.639Z,0.86
2023-02-24T14:25:02.171Z,0.86
2023-02-24T14:27:33.052Z,0.83
2023-02-24T14:30:00.766Z,0.78
2023-02-24T14:32:33.698Z,0.73
2023-02-24T14:35:01.491Z,0.73
2023-02-24T14:37:30.889Z,0.68
2023-02-24T14:39:59.586Z,0.67
2023-02-24T14:42:28.062Z,0.62
2023-02-24T14:44:56.864Z,0.65
2023-02-24T14:47:25.930Z,0.65
2023-02-24T14:49:56.669Z,0.61
2023-02-24T14:52:28.401Z,0.57
2023-02-24T14:54:58.351Z,0.56
2023-02-24T14:57:27.702Z,0.54
2023-02-24T14:59:56.933Z,0.53
2023-02-24T15:02:28.801Z,0.51
2023-02-24T15:04:58.488Z,0.48
2023-02-24T15:07:27.469Z,0.46
2023-02-24T15:09:55.843Z,0.43
2023-02-24T15:12:28.342Z,0.39
2023-02-24T15:14:57.740Z,0.39
2023-02-24T15:17:25.687Z,0.36
2023-02-24T15:19:55.676Z,0.38
2023-02-24T15:22:27.023Z,0.33
2023-02-24T15:24:55.971Z,0.33
2023-02-24T15:27:26.426Z,0.28
2023-02-24T15:30:06.319Z,0.25
2023-02-24T15:32:35.379Z,0.22
2023-02-24T15:35:04.448Z,0.15
2023-02-24T15:37:38.127Z,0.07
2023-02-24T15:40:07.211Z,0.00
2023-02-24T15:42:35.615Z,-0.06
2023-02-24T15:45:05.554Z,-0.14
2023-02-24T15:47:42.487Z,-0.23
2023-02-24T15:50:10.830Z,-0.18
2023-02-24T15:52:41.323Z,-0.24
2023-02-24T15:55:11.544Z,-0.27
2023-02-24T15:57:39.274Z,-0.27
2023-02-24T16:00:13.130Z,-0.35
2023-02-24T16:02:41.203Z,-0.39
2023-02-24T16:05:10.507Z,-0.41
2023-02-24T16:07:38.622Z,-0.41
2023-02-24T16:10:09.784Z,-0.46
2023-02-24T16:12:39.462Z,-0.46
2023-02-24T16:15:07.992Z,-0.52
2023-02-24T16:17:37.663Z,-0.55
2023-02-24T16:20:09.089Z,-0.58
2023-02-24T16:22:37.040Z,-0.67
2023-02-24T16:25:05.031Z,-0.71
2023-02-24T16:27:34.604Z,-0.76
2023-02-24T16:30:02.575Z,-0.75
2023-02-24T16:32:30.460Z,-0.82
2023-02-24T16:34:58.286Z,-0.82
2023-02-24T16:37:28.374Z,-0.85
2023-02-24T16:39:56.020Z,-0.90
2023-02-24T16:42:23.721Z,-0.91
2023-02-24T16:44:52.862Z,-0.93
2023-02-24T16:47:23.439Z,-0.99
2023-02-24T16:49:54.830Z,-1.01
2023-02-24T16:52:23.505Z,-1.00
2023-02-24T16:54:51.212Z,-1.00
2023-02-24T16:57:18.837Z,-1.03
2023-02-24T16:59:46.501Z,-1.00
2023-02-24T17:02:19.374Z,-1.04
2023-02-24T17:04:47.032Z,-0.99
2023-02-24T17:07:16.195Z,-1.01
2023-02-24T17:09:44.008Z,-0.91
2023-02-24T17:12:12.709Z,-0.91
2023-02-24T17:14:40.406Z,-0.90
2023-02-24T17:17:08.243Z,-0.87
2023-02-24T17:19:37.360Z,-0.87
2023-02-24T17:22:05.633Z,-0.89
2023-02-24T17:24:33.272Z,-0.89
2023-02-24T17:27:01.323Z,-0.86
2023-02-24T17:29:29.039Z,-0.86
2023-02-24T17:31:57.497Z,-0.86
2023-02-24T17:34:25.345Z,-0.90
2023-02-24T17:36:54.493Z,-0.89
2023-02-24T17:39:22.173Z,-0.94
2023-02-24T17:41:49.809Z,-0.97
2023-02-24T17:44:17.420Z,-1.01
2023-02-24T17:46:45.099Z,-0.99
2023-02-24T17:49:12.757Z,-1.01
2023-02-24T17:51:40.384Z,-1.03
2023-02-24T17:54:09.528Z,-0.99
2023-02-24T17:56:37.447Z,-0.99
2023-02-24T17:59:05.153Z,-0.94
2023-02-24T18:01:32.787Z,-0.96
2023-02-24T18:04:00.439Z,-0.97
2023-02-24T18:06:28.256Z,-0.98
2023-02-24T18:08:55.953Z,-0.99
2023-02-24T18:11:24.933Z,-1.03
2023-02-24T18:13:55.140Z,-1.03
2023-02-24T18:16:23.191Z,-1.06
2023-02-24T18:18:51.117Z,-1.06
2023-02-24T18:21:18.999Z,-1.05
2023-02-24T18:23:49.079Z,-1.07
2023-02-24T18:26:17.217Z,-1.12
2023-02-24T18:28:46.243Z,-1.13
2023-02-24T18:31:14.895Z,-1.16
2023-02-24T18:33:43.094Z,-1.22
2023-02-24T18:36:11.363Z,-1.20
2023-02-24T18:38:38.985Z,-1.20
2023-02-24T18:41:07.277Z,-1.16
2023-02-24T18:43:36.002Z,-1.21
2023-02-24T18:46:06.448Z,-1.19
2023-02-24T18:48:34.509Z,-1.20
2023-02-24T18:51:02.622Z,-1.24
2023-02-24T18:53:31.704Z,-1.24
2023-02-24T18:55:59.965Z,-1.34
2023-02-24T18:58:27.821Z,-1.38
2023-02-24T19:00:55.425Z,-1.39
2023-02-24T19:03:24.829Z,-1.47
2023-02-24T19:05:52.936Z,-1.47
2023-02-24T19:08:20.599Z,-1.43
2023-02-24T19:10:48.384Z,-1.41
2023-02-24T19:13:16.023Z,-1.43
2023-02-24T19:15:44.765Z,-1.39
2023-02-24T19:18:12.705Z,-1.38
2023-02-24T19:20:44.281Z,-1.38
2023-02-24T19:23:11.986Z,-1.38
2023-02-24T19:25:39.676Z,-1.37
2023-02-24T19:28:07.379Z,-1.38
2023-02-24T19:30:35.054Z,-1.37
2023-02-24T19:33:02.809Z,-1.36
2023-02-24T19:35:30.542Z,-1.35
2023-02-24T19:37:59.577Z,-1.36
2023-02-24T19:40:27.297Z,-1.34
2023-02-24T19:42:54.910Z,-1.36
2023-02-24T19:45:22.626Z,-1.39
2023-02-24T19:47:50.712Z,-1.40
2023-02-24T19:50:18.682Z,-1.40
2023-02-24T19:52:46.436Z,-1.39
2023-02-24T19:55:15.546Z,-1.40
2023-02-24T19:57:43.192Z,-1.40
2023-02-24T20:00:12.213Z,-1.38
2023-02-24T20:02:40.116Z,-1.44
2023-02-24T20:05:10.368Z,-1.47
2023-02-24T20:07:38.675Z,-1.43
2023-02-24T20:10:06.861Z,-1.41
2023-02-24T20:12:35.987Z,-1.41
2023-02-24T20:15:03.631Z,-1.44
2023-02-24T20:17:31.393Z,-1.42
2023-02-24T20:19:59.045Z,-1.41
2023-02-24T20:22:26.696Z,-1.42
2023-02-24T20:24:54.353Z,-1.40
2023-02-24T20:27:21.950Z,-1.41
2023-02-24T20:29:53.457Z,-1.43
2023-02-24T20:32:21.456Z,-1.42
2023-02-24T20:34:49.630Z,-1.41
2023-02-24T20:37:17.479Z,-1.38
2023-02-24T20:39:45.101Z,-1.40
2023-02-24T20:42:13.627Z,-1.38
2023-02-24T20:44:41.344Z,-1.38
2023-02-24T20:47:10.396Z,-1.38
2023-02-24T20:49:39.313Z,-1.36
2023-02-24T20:52:07.124Z,-1.38
2023-02-24T20:54:35.162Z,-1.38
2023-02-24T20:57:02.887Z,-1.34
2023-02-24T20:59:30.745Z,-1.33
2023-02-24T21:01:59.643Z,-1.35
2023-02-24T21:04:28.638Z,-1.34
2023-02-24T21:06:56.766Z,-1.33
2023-02-24T21:09:24.430Z,-1.34
2023-02-24T21:11:52.105Z,-1.32
2023-02-24T21:14:20.384Z,-1.32
2023-02-24T21:16:48.069Z,-1.34
2023-02-24T21:19:17.738Z,-1.31
2023-02-24T21:21:46.885Z,-1.29
2023-02-24T21:24:14.598Z,-1.29
2023-02-24T21:26:42.317Z,-1.31
2023-02-24T21:29:09.934Z,-1.28
2023-02-24T21:31:37.721Z,-1.28
2023-02-24T21:34:07.823Z,-1.27
2023-02-24T21:36:37.780Z,-1.28
2023-02-24T21:39:07.494Z,-1.27
2023-02-24T21:41:36.155Z,-1.28
2023-02-24T21:44:05.023Z,-1.25
2023-02-24T21:46:32.704Z,-1.27
2023-02-24T21:49:00.922Z,-1.26
2023-02-24T21:51:29.580Z,-1.23
2023-02-24T21:53:57.601Z,-1.24
2023-02-24T21:56:27.926Z,-1.24
2023-02-24T21:58:57.907Z,-1.26
2023-02-24T22:01:27.142Z,-1.22
2023-02-24T22:03:55.482Z,-1.21
2023-02-24T22:06:23.498Z,-1.21
2023-02-24T22:08:51.357Z,-1.20
2023-02-24T22:11:19.657Z,-1.18
2023-02-24T22:13:49.093Z,-1.16
2023-02-24T22:16:19.110Z,-1.15
2023-02-24T22:18:47.327Z,-1.15
2023-02-24T22:21:17.361Z,-1.13
2023-02-24T22:23:45.610Z,-1.10
2023-02-24T22:26:13.921Z,-1.09
2023-02-24T22:28:42.612Z,-1.10
2023-02-24T22:31:12.825Z,-1.07
2023-02-24T22:33:41.845Z,-1.06
2023-02-24T22:36:10.161Z,-1.03
2023-02-24T22:38:38.435Z,-1.01
2023-02-24T22:41:07.036Z,-1.00
2023-02-24T22:43:34.744Z,-0.97
2023-02-24T22:46:04.154Z,-0.94
2023-02-24T22:48:33.978Z,-0.91
2023-02-24T22:51:04.107Z,-0.90
2023-02-24T22:53:32.880Z,-0.88
2023-02-24T22:56:00.577Z,-0.85
2023-02-24T22:58:28.507Z,-0.86
2023-02-24T23:00:56.246Z,-0.85
2023-02-24T23:03:24.748Z,-0.82
2023-02-24T23:05:56.980Z,-0.83
2023-02-24T23:08:24.949Z,-0.82
2023-02-24T23:10:52.859Z,-0.80
2023-02-24T23:13:20.960Z,-0.79
2023-02-24T23:15:48.949Z,-0.76
2023-02-24T23:18:16.603Z,-0.74
2023-02-24T23:20:44.787Z,-0.76
2023-02-24T23:23:13.799Z,-0.73
2023-02-24T23:25:42.155Z,-0.69
2023-02-24T23:28:09.837Z,-0.68
2023-02-24T23:30:41.741Z,-0.68
2023-02-24T23:33:11.128Z,-0.67
2023-02-24T23:35:40.754Z,-0.65
2023-02-24T23:38:08.768Z,-0.63
2023-02-24T23:40:49.672Z,-0.62
2023-02-24T23:43:17.976Z,-0.60
2023-02-24T23:45:45.737Z,-0.56
2023-02-24T23:48:14.765Z,-0.55
2023-02-24T23:50:43.491Z,-0.53
2023-02-24T23:53:11.234Z,-0.50
2023-02-24T23:55:42.136Z,-0.46
2023-02-24T23:58:09.791Z,-0.42
